Paris, France
Current Conditions -  °F | °C
As of 12:00 PM on Saturday 25 Oct 2014 (Local Time) from LFPB Reporting Station
Overcast Overcast  
Wind Chill: 14°   Ceiling: 1100
Heat Index: 14°   Visibility: 6mi
Dew Point: 12°   Wind: 2mph
Humidity: 88%   Direction: 300°WNW
Pressure: 30.12"   Gusts: NA
Location:  48.86°N, 2.35°E
Report Text: LFPB 251000Z AUTO 30002KT 9999 OVC011 14/12 Q1020
Loading
Personal Weather Stations






























Interactive Weather Map
Tropical Storm Tracking
New forecast layout! Learn more

10-Day Weather Forecast

Advertisements
Track Severe Weather on mobile